createdAt,value
2022-08-24T05:50:58.855Z,16.00
2022-08-24T05:55:57.148Z,16.00
2022-08-24T06:00:50.921Z,16.00
2022-08-24T06:21:00.630Z,16.70
2022-08-24T06:26:15.860Z,16.90
2022-08-24T06:31:11.622Z,17.10
2022-08-24T06:36:07.994Z,17.30
2022-08-24T06:56:09.886Z,17.90
2022-08-24T07:01:10.270Z,18.00
2022-08-24T07:06:05.098Z,18.30
2022-08-24T07:24:35.833Z,18.90
2022-08-24T07:29:52.851Z,19.20
2022-08-24T07:34:44.014Z,19.50
2022-08-24T07:39:39.556Z,19.70
2022-08-24T07:44:33.246Z,20.00
2022-08-24T07:49:36.953Z,20.30
2022-08-24T07:54:32.748Z,20.50
2022-08-24T07:59:28.374Z,20.80
2022-08-24T08:04:25.228Z,21.10
2022-08-24T08:09:19.684Z,21.40
2022-08-24T08:14:14.863Z,21.60
2022-08-24T08:19:10.731Z,21.80
2022-08-24T08:24:20.623Z,22.00
2022-08-24T08:29:20.370Z,22.30
2022-08-24T08:34:17.315Z,22.60
2022-08-24T08:39:13.462Z,22.80
2022-08-24T08:44:13.478Z,22.90
2022-08-24T08:49:25.178Z,23.10
2022-08-24T08:54:45.932Z,23.40
2022-08-24T08:59:58.197Z,23.70
2022-08-24T09:05:36.144Z,24.10
2022-08-24T09:10:44.584Z,24.50
2022-08-24T09:16:10.683Z,24.80
2022-08-24T09:21:36.746Z,25.20
2022-08-24T09:26:38.741Z,25.30
2022-08-24T09:31:58.822Z,25.10
2022-08-24T09:37:02.671Z,24.90
2022-08-24T09:42:41.911Z,24.90
2022-08-24T09:48:04.526Z,25.10
2022-08-24T09:53:42.514Z,25.70
2022-08-24T09:59:00.314Z,26.20
2022-08-24T10:04:06.086Z,26.20
2022-08-24T10:09:15.774Z,26.20
2022-08-24T10:14:26.413Z,26.20
2022-08-24T10:19:41.995Z,26.40
2022-08-24T10:25:04.630Z,27.00
2022-08-24T10:30:23.767Z,27.50
2022-08-24T10:35:26.037Z,27.90
2022-08-24T10:40:38.725Z,28.10
2022-08-24T10:46:02.420Z,28.50
2022-08-24T10:51:00.549Z,28.90
2022-08-24T10:56:15.799Z,28.60
2022-08-24T11:01:21.317Z,28.70
2022-08-24T11:06:18.686Z,29.30
2022-08-24T11:11:25.065Z,29.70
2022-08-24T11:16:27.372Z,30.10
2022-08-24T11:21:41.956Z,30.50
2022-08-24T11:26:53.653Z,30.90
2022-08-24T11:31:52.907Z,31.30
2022-08-24T11:36:46.757Z,31.50
2022-08-24T11:41:52.230Z,31.40
2022-08-24T11:46:52.195Z,31.30
2022-08-24T11:51:55.745Z,31.20
2022-08-24T11:57:02.214Z,31.30
2022-08-24T12:02:00.135Z,31.50
2022-08-24T12:07:03.068Z,31.80
2022-08-24T12:12:07.453Z,32.10
2022-08-24T12:17:06.301Z,32.00
2022-08-24T12:22:04.317Z,32.10
2022-08-24T12:27:04.070Z,32.30
2022-08-24T12:32:01.527Z,32.60
2022-08-24T12:37:02.770Z,32.90
2022-08-24T12:42:16.997Z,33.10
2022-08-24T12:47:13.497Z,33.20
2022-08-24T12:52:23.833Z,33.00
2022-08-24T12:57:31.657Z,33.00
2022-08-24T13:02:37.273Z,33.10
2022-08-24T13:07:42.931Z,32.70
2022-08-24T13:13:11.985Z,32.10
2022-08-24T13:18:46.304Z,31.80
2022-08-24T13:23:39.920Z,31.70
2022-08-24T13:28:42.949Z,31.70
2022-08-24T13:33:41.176Z,32.00
2022-08-24T13:39:02.347Z,32.20
2022-08-24T13:44:03.770Z,32.60
2022-08-24T13:49:03.701Z,32.60
2022-08-24T13:54:13.652Z,33.30
2022-08-24T13:59:23.801Z,33.80
2022-08-24T14:04:33.050Z,34.40
2022-08-24T14:09:38.256Z,34.20
2022-08-24T14:15:03.757Z,33.80
2022-08-24T14:20:08.131Z,34.00
2022-08-24T14:25:17.266Z,33.60
2022-08-24T14:30:57.254Z,33.50
2022-08-24T14:36:12.962Z,32.80
2022-08-24T14:41:19.858Z,32.10
2022-08-24T14:46:24.847Z,31.50
2022-08-24T14:51:43.143Z,31.40
2022-08-24T14:56:52.243Z,31.50
2022-08-24T15:01:47.931Z,32.30
2022-08-24T15:06:49.001Z,32.60
2022-08-24T15:11:44.099Z,32.50
2022-08-24T15:16:53.317Z,32.00
2022-08-24T15:21:57.030Z,31.50
2022-08-24T15:27:00.832Z,31.20
2022-08-24T15:32:01.001Z,30.90
2022-08-24T15:37:02.801Z,30.50
2022-08-24T15:41:57.234Z,30.50
2022-08-24T15:46:53.249Z,31.00
2022-08-24T15:51:52.013Z,30.50
2022-08-24T15:56:50.063Z,29.80
2022-08-24T16:02:01.013Z,28.70
2022-08-24T16:06:54.759Z,27.60
2022-08-24T16:11:59.943Z,26.50
2022-08-24T16:16:54.543Z,25.60
2022-08-24T16:21:55.111Z,24.90
2022-08-24T16:26:57.558Z,24.50
2022-08-24T16:31:53.057Z,24.20
2022-08-24T16:36:48.413Z,23.90
2022-08-24T16:41:44.375Z,23.80
2022-08-24T16:46:41.232Z,23.60
2022-08-24T16:51:37.645Z,23.60
2022-08-24T16:56:37.714Z,23.60
2022-08-24T17:01:31.828Z,23.30
2022-08-24T17:06:30.375Z,23.20
2022-08-24T17:11:24.132Z,23.20
2022-08-24T17:16:18.176Z,23.00
2022-08-24T17:21:12.317Z,22.90
2022-08-24T17:26:20.214Z,22.80
2022-08-24T17:31:15.746Z,22.70
2022-08-24T17:36:23.761Z,22.60
2022-08-24T17:41:19.462Z,22.50
2022-08-24T17:46:15.310Z,22.20
2022-08-24T17:51:09.705Z,21.90
2022-08-24T17:56:04.941Z,21.60
2022-08-24T18:00:59.899Z,21.60
2022-08-24T18:05:53.732Z,21.50
2022-08-24T18:10:47.759Z,21.60
2022-08-24T18:15:42.007Z,21.50
2022-08-24T18:20:40.313Z,21.40
2022-08-24T18:25:48.376Z,21.30
2022-08-24T18:30:41.999Z,21.40
2022-08-24T18:35:39.567Z,21.40
2022-08-24T18:40:33.748Z,21.40
2022-08-24T18:45:32.619Z,21.30
2022-08-24T18:50:28.944Z,21.40
2022-08-24T18:55:25.441Z,21.30
2022-08-24T19:00:19.314Z,21.20
2022-08-24T19:05:18.790Z,21.20
2022-08-24T19:10:14.786Z,21.10
2022-08-24T19:15:30.953Z,20.90
2022-08-24T19:20:27.263Z,20.90
2022-08-24T19:25:28.110Z,20.90
2022-08-24T19:30:23.953Z,20.80
2022-08-24T19:35:18.042Z,20.70
2022-08-24T19:40:12.323Z,20.60
2022-08-24T19:45:25.101Z,20.60
